CYUB

Tuktoyaktuk Airport

Tuktoyaktuk, Northwest Territories, Canada
METAR CYUB 140100Z 05002KT 10SM -SN OVC043 M19/M22 A2964 RMK SC8 SLP039
Observed Flight Rules
Dec-14 @ 01:00 UTC (11 minutes ago) Visual Flight Rules
Wind Visibility Clouds Conditions
50° at 2 knots 10 miles
  • Overcast at 4,300' AGL
  • Light Snow
Temperatures Readings
Current -19°C / -2°F
Dewpoint -22°C / -8°F
Humidity 77%
Altimeter 29.64" Hg
Pressure 1003.9 hPa
Elevation 5
METAR CYUB 140100Z 05002KT 10SM -SN OVC043 M19/M22 A2964 RMK SC8 SLP039
Observed Flight Rules
Dec-14 @ 01:00 UTC
(11 minutes ago)
VFR
Wind Visibility
50° at 2 knots 10 miles
Clouds
  • Overcast at 4,300' AGL
Conditions
  • Light Snow
Temperature Dewpoint
-19°C / -2°F -22°C / -8°F
Humidity Altimeter Pressure
77% 29.64" Hg 1003.9 hPa